MED324 LEBZ-LEMD
Flight info
| Callsign | MED324 |
|---|---|
| Flight time | 0h 37m |
| Altitude | 21000 |
| Route | DCT NIMAS DCT SOTUK |
| Aircraft | A321/M-SDE3FGHIRWY/LB1 |
Departure
| Time | 2026-05-06 17:43 |
|---|---|
| Airport | Badajoz Airport (LEBZ) |
Arrival
| Time | 2026-05-06 18:21 |
|---|---|
| Airport | Adolfo Suárez Madrid–Barajas Airport (LEMD) |
| Time | Latitude | Longitude | Altitude | Speed | Heading |
|---|---|---|---|---|---|
| 2026-05-06 17:42 | 38.88405 | -6.80837 | 618 ft | 0 kts | 306° |
| 2026-05-06 17:42 | 38.88429 | -6.80880 | 618 ft | 33 kts | 306° |
| 2026-05-06 17:43 | 38.88792 | -6.81528 | 620 ft | 148 kts | 306° |
| 2026-05-06 17:43 | 38.89737 | -6.82774 | 1083 ft | 235 kts | 323° |
| 2026-05-06 17:43 | 38.91271 | -6.83585 | 1634 ft | 231 kts | 349° |
| 2026-05-06 17:43 | 38.92899 | -6.83406 | 2215 ft | 241 kts | 15° |
| 2026-05-06 17:44 | 38.94346 | -6.82309 | 2774 ft | 249 kts | 41° |
| 2026-05-06 17:44 | 38.95324 | -6.80474 | 3330 ft | 254 kts | 66° |
| 2026-05-06 17:44 | 38.95622 | -6.78201 | 3906 ft | 269 kts | 90° |
| 2026-05-06 17:44 | 38.95240 | -6.75733 | 4489 ft | 297 kts | 105° |
| 2026-05-06 17:45 | 38.94529 | -6.73255 | 4990 ft | 304 kts | 111° |
| 2026-05-06 17:45 | 38.93677 | -6.70718 | 5496 ft | 312 kts | 113° |
| 2026-05-06 17:45 | 38.92819 | -6.68099 | 6003 ft | 318 kts | 111° |
| 2026-05-06 17:45 | 38.92108 | -6.65417 | 6499 ft | 325 kts | 108° |
| 2026-05-06 17:46 | 38.91699 | -6.63490 | 6848 ft | 329 kts | 106° |
| 2026-05-06 17:46 | 38.91100 | -6.60642 | 7340 ft | 333 kts | 107° |
| 2026-05-06 17:46 | 38.90665 | -6.57702 | 7855 ft | 339 kts | 97° |
| 2026-05-06 17:46 | 38.90557 | -6.54643 | 8366 ft | 343 kts | 90° |
| 2026-05-06 17:47 | 38.90667 | -6.51531 | 8876 ft | 346 kts | 85° |
| 2026-05-06 17:47 | 38.90904 | -6.48440 | 9380 ft | 348 kts | 83° |
| 2026-05-06 17:47 | 38.91205 | -6.45344 | 9881 ft | 351 kts | 82° |
| 2026-05-06 17:47 | 38.91562 | -6.42236 | 10383 ft | 353 kts | 80° |
| 2026-05-06 17:48 | 38.91988 | -6.39126 | 10884 ft | 356 kts | 79° |
| 2026-05-06 17:48 | 38.92469 | -6.35952 | 11382 ft | 358 kts | 78° |
| 2026-05-06 17:48 | 38.92975 | -6.32799 | 11896 ft | 361 kts | 77° |
| 2026-05-06 17:48 | 38.93495 | -6.29667 | 12393 ft | 363 kts | 77° |
| 2026-05-06 17:49 | 38.94032 | -6.26495 | 12893 ft | 366 kts | 77° |
| 2026-05-06 17:49 | 38.94593 | -6.23223 | 13406 ft | 368 kts | 77° |
| 2026-05-06 17:49 | 38.95150 | -6.19987 | 13909 ft | 371 kts | 77° |
| 2026-05-06 17:49 | 38.95706 | -6.16769 | 14405 ft | 374 kts | 77° |
| 2026-05-06 17:50 | 38.96278 | -6.13464 | 14912 ft | 377 kts | 77° |
| 2026-05-06 17:50 | 38.96849 | -6.10162 | 15414 ft | 380 kts | 77° |
| 2026-05-06 17:50 | 38.97427 | -6.06812 | 15919 ft | 382 kts | 77° |
| 2026-05-06 17:50 | 38.98002 | -6.03478 | 16419 ft | 385 kts | 77° |
| 2026-05-06 17:51 | 38.98589 | -6.00065 | 16926 ft | 388 kts | 77° |
| 2026-05-06 17:51 | 38.99170 | -5.96681 | 17425 ft | 391 kts | 77° |
| 2026-05-06 17:51 | 38.99759 | -5.93244 | 17929 ft | 394 kts | 77° |
| 2026-05-06 17:51 | 39.00355 | -5.89759 | 18435 ft | 397 kts | 77° |
| 2026-05-06 17:52 | 39.00948 | -5.86285 | 18936 ft | 400 kts | 77° |
| 2026-05-06 17:52 | 39.01400 | -5.83633 | 19317 ft | 402 kts | 77° |
| 2026-05-06 17:52 | 39.01963 | -5.80324 | 19788 ft | 405 kts | 77° |
| 2026-05-06 17:52 | 39.02562 | -5.76791 | 20288 ft | 408 kts | 77° |
| 2026-05-06 17:53 | 39.03166 | -5.73226 | 20777 ft | 411 kts | 77° |
| 2026-05-06 17:53 | 39.03791 | -5.69530 | 20929 ft | 419 kts | 77° |
| 2026-05-06 17:53 | 39.04410 | -5.65861 | 20994 ft | 420 kts | 77° |
| 2026-05-06 17:53 | 39.05029 | -5.62186 | 21002 ft | 421 kts | 77° |
| 2026-05-06 17:54 | 39.05646 | -5.58511 | 21001 ft | 421 kts | 77° |
| 2026-05-06 17:54 | 39.06269 | -5.54793 | 21000 ft | 421 kts | 77° |
| 2026-05-06 17:54 | 39.06882 | -5.51126 | 21000 ft | 421 kts | 77° |
| 2026-05-06 17:54 | 39.07497 | -5.47436 | 21000 ft | 421 kts | 77° |
| 2026-05-06 17:55 | 39.08108 | -5.43762 | 21000 ft | 421 kts | 77° |
| 2026-05-06 17:55 | 39.08716 | -5.40106 | 21000 ft | 422 kts | 77° |
| 2026-05-06 17:55 | 39.09336 | -5.36361 | 21000 ft | 422 kts | 77° |
| 2026-05-06 17:55 | 39.09950 | -5.32651 | 21000 ft | 422 kts | 77° |
| 2026-05-06 17:56 | 39.10555 | -5.28985 | 21000 ft | 422 kts | 77° |
| 2026-05-06 17:56 | 39.11163 | -5.25291 | 21000 ft | 422 kts | 77° |
| 2026-05-06 17:56 | 39.11778 | -5.21550 | 21000 ft | 422 kts | 77° |
| 2026-05-06 17:56 | 39.12383 | -5.17861 | 21000 ft | 422 kts | 77° |
| 2026-05-06 17:57 | 39.12982 | -5.14202 | 21000 ft | 422 kts | 77° |
| 2026-05-06 17:57 | 39.13587 | -5.10500 | 21000 ft | 422 kts | 77° |
| 2026-05-06 17:57 | 39.14190 | -5.06798 | 21000 ft | 422 kts | 77° |
| 2026-05-06 17:57 | 39.14789 | -5.03117 | 21000 ft | 422 kts | 77° |
| 2026-05-06 17:58 | 39.15391 | -4.99403 | 21000 ft | 422 kts | 77° |
| 2026-05-06 17:58 | 39.15998 | -4.95653 | 21000 ft | 422 kts | 77° |
| 2026-05-06 17:58 | 39.16603 | -4.91909 | 21000 ft | 422 kts | 77° |
| 2026-05-06 17:58 | 39.17207 | -4.88155 | 21000 ft | 422 kts | 77° |
| 2026-05-06 17:59 | 39.17801 | -4.84460 | 21000 ft | 422 kts | 77° |
| 2026-05-06 17:59 | 39.18391 | -4.80781 | 21000 ft | 422 kts | 77° |
| 2026-05-06 17:59 | 39.19187 | -4.77145 | 20995 ft | 420 kts | 68° |
| 2026-05-06 17:59 | 39.20520 | -4.73804 | 21003 ft | 420 kts | 57° |
| 2026-05-06 18:00 | 39.22186 | -4.70740 | 21005 ft | 419 kts | 50° |
| 2026-05-06 18:00 | 39.24049 | -4.67879 | 21004 ft | 417 kts | 46° |
| 2026-05-06 18:00 | 39.26038 | -4.65144 | 21002 ft | 416 kts | 43° |
| 2026-05-06 18:00 | 39.28093 | -4.62495 | 21001 ft | 415 kts | 42° |
| 2026-05-06 18:01 | 39.30192 | -4.59879 | 21000 ft | 415 kts | 41° |
| 2026-05-06 18:01 | 39.32283 | -4.57310 | 21000 ft | 414 kts | 41° |
| 2026-05-06 18:01 | 39.34342 | -4.54787 | 21000 ft | 414 kts | 41° |
| 2026-05-06 18:01 | 39.36449 | -4.52192 | 21000 ft | 414 kts | 41° |
| 2026-05-06 18:02 | 39.38231 | -4.49980 | 21000 ft | 414 kts | 41° |
| 2026-05-06 18:02 | 39.40287 | -4.47404 | 21000 ft | 414 kts | 41° |
| 2026-05-06 18:02 | 39.42347 | -4.44797 | 21000 ft | 414 kts | 42° |
| 2026-05-06 18:02 | 39.44366 | -4.42217 | 21000 ft | 415 kts | 42° |
| 2026-05-06 18:03 | 39.46421 | -4.39568 | 21000 ft | 415 kts | 42° |
| 2026-05-06 18:03 | 39.48471 | -4.36903 | 21000 ft | 415 kts | 43° |
| 2026-05-06 18:03 | 39.50497 | -4.34257 | 21000 ft | 415 kts | 43° |
| 2026-05-06 18:03 | 39.52531 | -4.31596 | 21000 ft | 415 kts | 43° |
| 2026-05-06 18:04 | 39.54549 | -4.28951 | 21000 ft | 415 kts | 43° |
| 2026-05-06 18:04 | 39.56629 | -4.26222 | 21000 ft | 415 kts | 43° |
| 2026-05-06 18:04 | 39.58649 | -4.23569 | 21000 ft | 415 kts | 43° |
| 2026-05-06 18:04 | 39.60692 | -4.20885 | 21000 ft | 415 kts | 43° |
| 2026-05-06 18:05 | 39.62708 | -4.18232 | 21000 ft | 415 kts | 43° |
| 2026-05-06 18:05 | 39.64730 | -4.15568 | 21000 ft | 415 kts | 43° |
| 2026-05-06 18:05 | 39.66762 | -4.12890 | 21000 ft | 415 kts | 43° |
| 2026-05-06 18:05 | 39.68782 | -4.10228 | 20998 ft | 410 kts | 43° |
| 2026-05-06 18:06 | 39.70739 | -4.07642 | 20991 ft | 389 kts | 43° |
| 2026-05-06 18:06 | 39.72613 | -4.05159 | 20989 ft | 370 kts | 43° |
| 2026-05-06 18:06 | 39.74327 | -4.02887 | 20991 ft | 357 kts | 43° |
| 2026-05-06 18:06 | 39.76081 | -4.00565 | 20994 ft | 350 kts | 42° |
| 2026-05-06 18:07 | 39.77778 | -3.98324 | 20996 ft | 347 kts | 42° |
| 2026-05-06 18:07 | 39.79467 | -3.96095 | 20789 ft | 345 kts | 42° |
| 2026-05-06 18:07 | 39.81130 | -3.93896 | 20255 ft | 340 kts | 42° |
| 2026-05-06 18:07 | 39.82795 | -3.91693 | 19637 ft | 340 kts | 42° |
| 2026-05-06 18:08 | 39.84449 | -3.89492 | 19011 ft | 338 kts | 43° |
| 2026-05-06 18:08 | 39.86125 | -3.87305 | 18378 ft | 335 kts | 41° |
| 2026-05-06 18:08 | 39.87252 | -3.85901 | 17958 ft | 333 kts | 40° |
| 2026-05-06 18:08 | 39.88941 | -3.83839 | 17324 ft | 326 kts | 40° |
| 2026-05-06 18:09 | 39.90548 | -3.81867 | 16711 ft | 323 kts | 40° |
| 2026-05-06 18:09 | 39.92235 | -3.79787 | 16065 ft | 322 kts | 40° |
| 2026-05-06 18:09 | 39.93842 | -3.77802 | 15444 ft | 319 kts | 40° |
| 2026-05-06 18:09 | 39.95456 | -3.75806 | 14816 ft | 317 kts | 40° |
| 2026-05-06 18:10 | 39.97032 | -3.73854 | 14197 ft | 314 kts | 40° |
| 2026-05-06 18:10 | 39.98607 | -3.71857 | 13566 ft | 312 kts | 41° |
| 2026-05-06 18:10 | 40.00113 | -3.69828 | 12939 ft | 310 kts | 44° |
| 2026-05-06 18:10 | 40.01539 | -3.67809 | 12326 ft | 307 kts | 45° |
| 2026-05-06 18:11 | 40.02976 | -3.65688 | 11688 ft | 304 kts | 46° |
| 2026-05-06 18:11 | 40.04334 | -3.63610 | 11066 ft | 302 kts | 47° |
| 2026-05-06 18:11 | 40.05686 | -3.61511 | 10437 ft | 299 kts | 47° |
| 2026-05-06 18:11 | 40.07015 | -3.59440 | 9811 ft | 296 kts | 47° |
| 2026-05-06 18:12 | 40.08340 | -3.57401 | 9184 ft | 293 kts | 46° |
| 2026-05-06 18:12 | 40.09692 | -3.55420 | 8557 ft | 289 kts | 45° |
| 2026-05-06 18:12 | 40.11083 | -3.53520 | 7928 ft | 286 kts | 43° |
| 2026-05-06 18:12 | 40.12472 | -3.51697 | 7302 ft | 283 kts | 42° |
| 2026-05-06 18:13 | 40.13876 | -3.49883 | 6657 ft | 283 kts | 41° |
| 2026-05-06 18:13 | 40.15305 | -3.48048 | 6151 ft | 282 kts | 41° |
| 2026-05-06 18:13 | 40.16659 | -3.46313 | 6093 ft | 258 kts | 41° |
| 2026-05-06 18:13 | 40.17904 | -3.44740 | 6080 ft | 248 kts | 41° |
| 2026-05-06 18:14 | 40.19236 | -3.43311 | 6082 ft | 240 kts | 34° |
| 2026-05-06 18:14 | 40.20614 | -3.42101 | 6079 ft | 233 kts | 29° |
| 2026-05-06 18:14 | 40.21968 | -3.41018 | 6071 ft | 221 kts | 28° |
| 2026-05-06 18:14 | 40.23274 | -3.39996 | 6070 ft | 212 kts | 27° |
| 2026-05-06 18:15 | 40.24522 | -3.39038 | 6071 ft | 204 kts | 26° |
| 2026-05-06 18:15 | 40.25776 | -3.38180 | 6087 ft | 198 kts | 22° |
| 2026-05-06 18:15 | 40.27081 | -3.37818 | 6089 ft | 192 kts | 1° |
| 2026-05-06 18:15 | 40.28429 | -3.37899 | 6095 ft | 193 kts | 352° |
| 2026-05-06 18:16 | 40.29723 | -3.38359 | 5996 ft | 192 kts | 334° |
| 2026-05-06 18:16 | 40.30813 | -3.39362 | 5823 ft | 193 kts | 320° |
| 2026-05-06 18:16 | 40.31791 | -3.40568 | 5585 ft | 194 kts | 316° |
| 2026-05-06 18:16 | 40.32823 | -3.41841 | 5286 ft | 193 kts | 318° |
| 2026-05-06 18:17 | 40.33749 | -3.42850 | 5046 ft | 192 kts | 321° |
| 2026-05-06 18:17 | 40.34239 | -3.43340 | 4932 ft | 192 kts | 323° |
| 2026-05-06 18:17 | 40.35314 | -3.44360 | 4690 ft | 192 kts | 324° |
| 2026-05-06 18:17 | 40.36398 | -3.45381 | 4439 ft | 192 kts | 324° |
| 2026-05-06 18:18 | 40.37474 | -3.46433 | 4183 ft | 192 kts | 323° |
| 2026-05-06 18:18 | 40.38532 | -3.47501 | 3927 ft | 191 kts | 322° |
| 2026-05-06 18:18 | 40.39593 | -3.48588 | 3669 ft | 190 kts | 322° |
| 2026-05-06 18:18 | 40.40638 | -3.49652 | 3416 ft | 190 kts | 322° |
| 2026-05-06 18:19 | 40.41686 | -3.50710 | 3163 ft | 189 kts | 322° |
| 2026-05-06 18:19 | 40.42724 | -3.51760 | 2912 ft | 188 kts | 322° |
| 2026-05-06 18:19 | 40.43445 | -3.52491 | 2738 ft | 188 kts | 322° |
| 2026-05-06 18:19 | 40.44468 | -3.53530 | 2480 ft | 181 kts | 322° |
| 2026-05-06 18:20 | 40.45453 | -3.54529 | 2238 ft | 169 kts | 322° |
| 2026-05-06 18:20 | 40.46350 | -3.55439 | 2039 ft | 158 kts | 322° |
| 2026-05-06 18:20 | 40.47024 | -3.56122 | 2009 ft | 64 kts | 322° |
| 2026-05-06 18:20 | 40.47402 | -3.56507 | 2009 ft | 63 kts | 317° |
| 2026-05-06 18:21 | 40.47626 | -3.56942 | 2009 ft | 25 kts | 294° |
| 2026-05-06 18:21 | 40.47634 | -3.56966 | 2009 ft | 0 kts | 293° |
| 2026-05-06 18:22 | 40.47634 | -3.56967 | 2009 ft | 0 kts | 293° |
| 2026-05-06 18:23 | 40.47655 | -3.57019 | 2009 ft | 16 kts | 301° |
| 2026-05-06 18:23 | 40.47648 | -3.57066 | 2009 ft | 11 kts | 211° |
| 2026-05-06 18:23 | 40.47517 | -3.57059 | 2009 ft | 29 kts | 136° |
| 2026-05-06 18:23 | 40.47386 | -3.56910 | 2009 ft | 6 kts | 142° |
| 2026-05-06 18:24 | 40.47324 | -3.56896 | 2009 ft | 15 kts | 169° |
| 2026-05-06 18:24 | 40.47242 | -3.56894 | 2009 ft | 0 kts | 213° |
| 2026-05-06 18:24 | 40.47193 | -3.56894 | 2009 ft | 2 kts | 190° |
| 2026-05-06 18:24 | 40.47176 | -3.56942 | 2009 ft | 15 kts | 274° |
| 2026-05-06 18:25 | 40.47192 | -3.57059 | 2009 ft | 0 kts | 280° |